Martinsdale, Montana
Current Conditions -  °F | °C
As of 11:38 PM on Tuesday 25 Nov 2014 (Local Time) from KLVM Reporting Station
Light Snow Light Snow  
Wind Chill: 19°   Ceiling: 800
Heat Index: 27°   Visibility: 1mi
Dew Point: 25°   Wind: 7mph
Humidity: 92%   Direction: 80°E
Pressure: 30.14"   Gusts: NA
Location:  46.46°N, 110.31°W
Report Text: KLVM 260638Z AUTO 08006KT 1SM -SN BR OVC008 M03/M04 A3014 RMK AO2 P0002 T10281039
Loading
Personal Weather Stations






























Interactive Weather Map New forecast layout! Learn more

10-Day Weather Forecast

Advertisements
Track Severe Weather on mobile